createdAt,value
2022-09-14T00:01:45.389Z,98981.78
2022-09-14T00:04:17.494Z,98985.38
2022-09-14T00:06:46.873Z,98975.09
2022-09-14T00:09:17.278Z,98981.31
2022-09-14T00:11:46.396Z,98973.03
2022-09-14T00:14:15.034Z,98967.09
2022-09-14T00:16:45.899Z,98967.22
2022-09-14T00:19:20.033Z,98960.06
2022-09-14T00:21:52.870Z,98969.06
2022-09-14T00:24:22.417Z,98966.69
2022-09-14T00:26:51.301Z,98968.84
2022-09-14T00:29:19.897Z,98969.81
2022-09-14T00:31:49.894Z,98971.34
2022-09-14T00:34:19.178Z,98965.84
2022-09-14T00:36:50.305Z,98964.88
2022-09-14T00:39:20.282Z,98966.53
2022-09-14T00:41:50.545Z,98963.06
2022-09-14T00:44:56.171Z,98955.97
2022-09-14T00:47:26.302Z,98966.34
2022-09-14T00:49:55.358Z,98965.72
2022-09-14T00:52:26.951Z,98971.00
2022-09-14T00:54:57.339Z,98970.41
2022-09-14T00:57:27.144Z,98967.91
2022-09-14T00:59:58.492Z,98975.13
2022-09-14T01:02:29.767Z,98972.00
2022-09-14T01:04:58.830Z,98976.09
2022-09-14T01:07:50.803Z,98959.50
2022-09-14T01:10:29.510Z,98962.25
2022-09-14T01:13:10.002Z,98963.34
2022-09-14T01:15:44.455Z,98961.69
2022-09-14T01:18:17.868Z,98962.53
2022-09-14T01:20:52.311Z,98956.63
2022-09-14T01:23:29.813Z,98961.91
2022-09-14T01:26:39.816Z,98958.81
2022-09-14T01:29:14.662Z,98961.59
2022-09-14T01:31:50.964Z,98951.38
2022-09-14T01:34:28.271Z,98951.50
2022-09-14T01:37:02.014Z,98956.19
2022-09-14T01:39:33.844Z,98952.84
2022-09-14T01:42:03.901Z,98950.06
2022-09-14T01:44:38.569Z,98948.03
2022-09-14T01:47:14.495Z,98951.28
2022-09-14T01:49:49.036Z,98953.06
2022-09-14T01:52:23.596Z,98946.13
2022-09-14T01:54:56.849Z,98938.91
2022-09-14T01:57:32.691Z,98938.69
2022-09-14T02:00:06.662Z,98947.56
2022-09-14T02:02:39.537Z,98946.25
2022-09-14T02:05:11.774Z,98946.34
2022-09-14T02:07:40.700Z,98949.09
2022-09-14T02:10:12.854Z,98950.41
2022-09-14T02:12:42.004Z,98939.50
2022-09-14T02:15:14.918Z,98945.84
2022-09-14T02:17:44.353Z,98940.56
2022-09-14T02:20:16.997Z,98940.44
2022-09-14T02:22:45.768Z,98934.31
2022-09-14T02:25:14.298Z,98929.41
2022-09-14T02:27:42.797Z,98935.84
2022-09-14T02:30:16.638Z,98930.47
2022-09-14T02:33:02.313Z,98936.44
2022-09-14T02:35:37.491Z,98936.94
2022-09-14T02:38:12.154Z,98937.69
2022-09-14T02:40:44.991Z,98934.28
2022-09-14T02:43:24.421Z,98925.53
2022-09-14T02:46:01.992Z,98925.19
2022-09-14T02:48:38.826Z,98932.84
2022-09-14T02:51:13.895Z,98932.47
2022-09-14T02:53:48.992Z,98932.09
2022-09-14T02:56:21.336Z,98927.28
2022-09-14T02:58:50.000Z,98921.63
2022-09-14T03:01:22.745Z,98920.78
2022-09-14T03:03:51.319Z,98914.91
2022-09-14T03:06:19.703Z,98919.31
2022-09-14T03:08:48.529Z,98920.28
2022-09-14T03:11:17.276Z,98922.59
2022-09-14T03:13:46.280Z,98920.78
2022-09-14T03:16:18.598Z,98922.22
2022-09-14T03:18:48.306Z,98918.19
2022-09-14T03:21:18.629Z,98928.00
2022-09-14T03:23:49.495Z,98929.03
2022-09-14T03:26:19.268Z,98932.75
2022-09-14T03:28:51.613Z,98936.72
2022-09-14T03:31:20.855Z,98942.34
2022-09-14T03:33:56.685Z,98939.34
2022-09-14T03:36:26.562Z,98935.53
2022-09-14T03:38:58.871Z,98935.19
2022-09-14T03:41:27.284Z,98927.00
2022-09-14T03:43:55.810Z,98927.59
2022-09-14T03:46:27.060Z,98917.69
2022-09-14T03:48:57.362Z,98930.78
2022-09-14T03:51:25.788Z,98923.78
2022-09-14T03:53:54.711Z,98925.25
2022-09-14T03:56:24.526Z,98923.78
2022-09-14T03:58:53.292Z,98930.88
2022-09-14T04:01:23.676Z,98930.97
2022-09-14T04:03:52.884Z,98929.06
2022-09-14T04:06:22.874Z,98930.78
2022-09-14T04:08:51.547Z,98926.09
2022-09-14T04:11:21.501Z,98933.91
2022-09-14T04:13:50.881Z,98930.19
2022-09-14T04:16:21.311Z,98926.47
2022-09-14T04:18:50.443Z,98925.25
2022-09-14T04:21:23.616Z,98923.22
2022-09-14T04:26:43.973Z,98932.47
2022-09-14T04:29:14.813Z,98929.66
2022-09-14T04:31:43.996Z,98928.34
2022-09-14T04:34:14.765Z,98930.66
2022-09-14T04:36:45.561Z,98933.13
2022-09-14T04:39:15.516Z,98932.06
2022-09-14T04:41:43.990Z,98930.72
2022-09-14T04:44:13.854Z,98942.72
2022-09-14T04:46:46.654Z,98937.44
2022-09-14T04:49:16.762Z,98923.41
2022-09-14T04:51:50.071Z,98930.97
2022-09-14T04:54:19.737Z,98927.25
2022-09-14T04:56:48.847Z,98931.56
2022-09-14T04:59:17.374Z,98935.75
2022-09-14T05:01:48.628Z,98937.31
2022-09-14T05:04:18.112Z,98928.06
2022-09-14T05:06:46.873Z,98927.94
2022-09-14T05:09:19.257Z,98932.84
2022-09-14T05:11:49.673Z,98930.19
2022-09-14T05:14:18.246Z,98936.22
2022-09-14T05:16:48.492Z,98934.03
2022-09-14T05:19:20.050Z,98930.06
2022-09-14T05:21:48.715Z,98931.47
2022-09-14T05:24:19.938Z,98934.56
2022-09-14T05:26:48.559Z,98925.81
2022-09-14T05:29:19.712Z,98931.78
2022-09-14T05:31:48.555Z,98933.22
2022-09-14T05:34:17.466Z,98927.69
2022-09-14T05:36:45.960Z,98914.09
2022-09-14T05:39:16.939Z,98919.03
2022-09-14T05:41:51.656Z,98915.78
2022-09-14T05:44:20.157Z,98921.50
2022-09-14T05:46:48.924Z,98918.75
2022-09-14T05:49:17.504Z,98919.44
2022-09-14T05:51:46.176Z,98920.88
2022-09-14T05:54:14.768Z,98921.59
2022-09-14T05:56:43.984Z,98914.34
2022-09-14T05:59:14.472Z,98924.69
2022-09-14T06:01:43.103Z,98922.84
2022-09-14T06:04:13.483Z,98921.91
2022-09-14T06:06:46.932Z,98928.03
2022-09-14T06:09:24.735Z,98928.75
2022-09-14T06:11:53.508Z,98927.78
2022-09-14T06:14:23.199Z,98927.50
2022-09-14T06:16:51.666Z,98923.91
2022-09-14T06:19:20.816Z,98924.38
2022-09-14T06:21:49.618Z,98919.66
2022-09-14T06:24:18.702Z,98921.63
2022-09-14T06:26:47.303Z,98921.84
2022-09-14T06:29:16.097Z,98922.47
2022-09-14T06:31:46.135Z,98926.25
2022-09-14T06:34:15.868Z,98917.50
2022-09-14T06:36:44.938Z,98923.00
2022-09-14T06:39:13.681Z,98917.88
2022-09-14T06:41:42.639Z,98915.56
2022-09-14T06:44:20.812Z,98917.38
2022-09-14T06:46:50.857Z,98922.53
2022-09-14T06:49:23.279Z,98922.88
2022-09-14T06:51:54.739Z,98926.28
2022-09-14T06:54:23.908Z,98923.22
2022-09-14T06:56:55.816Z,98923.53
2022-09-14T06:59:24.620Z,98921.31
2022-09-14T07:01:55.190Z,98923.31
2022-09-14T07:04:25.176Z,98922.22
2022-09-14T07:06:54.604Z,98927.53
2022-09-14T07:09:23.570Z,98926.97
2022-09-14T07:11:52.097Z,98921.69
2022-09-14T07:14:21.308Z,98925.47
2022-09-14T07:16:50.147Z,98935.38
2022-09-14T07:19:20.155Z,98932.63
2022-09-14T07:21:50.297Z,98935.97
2022-09-14T07:24:19.166Z,98932.91
2022-09-14T07:26:48.666Z,98935.16
2022-09-14T07:29:19.422Z,98943.81
2022-09-14T07:31:50.023Z,98938.63
2022-09-14T07:34:20.776Z,98948.28
2022-09-14T07:36:49.735Z,98942.84
2022-09-14T07:39:20.387Z,98944.31
2022-09-14T07:41:52.333Z,98936.81
2022-09-14T07:44:21.467Z,98934.88
2022-09-14T07:46:53.808Z,98942.78
2022-09-14T07:49:31.951Z,98948.75
2022-09-14T07:52:00.963Z,98948.19
2022-09-14T07:54:29.946Z,98950.44
2022-09-14T07:56:58.562Z,98948.06
2022-09-14T07:59:36.424Z,98946.69
2022-09-14T08:02:08.050Z,98946.28
2022-09-14T08:04:39.863Z,98948.50
2022-09-14T08:07:09.387Z,98954.38
2022-09-14T08:09:39.248Z,98957.09
2022-09-14T08:12:07.896Z,98952.38
2022-09-14T08:14:37.146Z,98953.91
2022-09-14T08:17:05.821Z,98955.88
2022-09-14T08:19:34.445Z,98962.72
2022-09-14T08:22:04.461Z,98964.34
2022-09-14T08:24:33.637Z,98954.56
2022-09-14T08:27:02.227Z,98952.94
2022-09-14T08:29:30.757Z,98945.72
2022-09-14T08:32:03.835Z,98952.53
2022-09-14T08:34:33.204Z,98959.34
2022-09-14T08:37:03.517Z,98960.91
2022-09-14T08:39:32.627Z,98965.44
2022-09-14T08:42:02.188Z,98968.28
2022-09-14T08:44:32.715Z,98964.50
2022-09-14T08:47:03.918Z,98968.22
2022-09-14T08:49:51.425Z,98962.09
2022-09-14T08:52:29.461Z,98951.41
2022-09-14T08:55:01.583Z,98964.72
2022-09-14T08:57:36.355Z,98958.38
2022-09-14T09:00:10.594Z,98956.38
2022-09-14T09:03:05.547Z,98960.91
2022-09-14T09:05:40.802Z,98966.13
2022-09-14T09:08:19.043Z,98965.63
2022-09-14T09:10:49.232Z,98967.63
2022-09-14T09:13:22.057Z,98970.47
2022-09-14T09:15:53.797Z,98969.22
2022-09-14T09:18:28.011Z,98969.88
2022-09-14T09:21:01.879Z,98971.56
2022-09-14T09:23:33.950Z,98963.66
2022-09-14T09:26:06.110Z,98966.75
2022-09-14T09:28:35.470Z,98967.22
2022-09-14T09:31:11.441Z,98963.78
2022-09-14T09:34:15.808Z,98964.19
2022-09-14T09:36:47.690Z,98967.00
2022-09-14T09:39:18.654Z,98961.53
2022-09-14T09:41:50.869Z,98956.94
2022-09-14T09:44:20.419Z,98966.47
2022-09-14T09:46:51.832Z,98958.75
2022-09-14T09:49:24.595Z,98968.78
2022-09-14T09:51:56.857Z,98964.31
2022-09-14T09:54:34.626Z,98957.94
2022-09-14T09:57:06.791Z,98966.59
2022-09-14T09:59:39.669Z,98961.41
2022-09-14T10:02:27.869Z,98958.06
2022-09-14T10:05:02.647Z,98960.09
2022-09-14T10:07:33.537Z,98958.00
2022-09-14T10:10:06.773Z,98958.63
2022-09-14T10:12:38.974Z,98963.31
2022-09-14T10:15:18.276Z,98961.13
2022-09-14T10:18:02.157Z,98957.75
2022-09-14T10:20:32.425Z,98957.22
2022-09-14T10:23:24.132Z,98955.72
2022-09-14T10:26:15.983Z,98960.69
2022-09-14T10:28:47.910Z,98955.38
2022-09-14T10:31:24.325Z,98960.88
2022-09-14T10:33:56.321Z,98963.63
2022-09-14T10:36:29.831Z,98966.44
2022-09-14T10:39:08.502Z,98953.66
2022-09-14T10:41:43.682Z,98958.22
2022-09-14T10:44:32.468Z,98961.91
2022-09-14T10:47:21.738Z,98954.56
2022-09-14T10:50:04.033Z,98956.84
2022-09-14T10:52:46.117Z,98959.22
2022-09-14T10:55:32.251Z,98964.31
2022-09-14T10:58:18.066Z,98959.81
2022-09-14T11:00:57.641Z,98958.13
2022-09-14T11:03:44.002Z,98952.75
2022-09-14T11:06:29.815Z,98948.88
2022-09-14T11:09:03.445Z,98950.25
2022-09-14T11:11:46.792Z,98942.00
2022-09-14T11:14:31.456Z,98954.63
2022-09-14T11:17:20.604Z,98951.28
2022-09-14T11:20:03.119Z,98940.28
2022-09-14T11:22:42.330Z,98934.91
2022-09-14T11:25:15.864Z,98944.78
2022-09-14T11:27:51.322Z,98936.31
2022-09-14T11:30:22.498Z,98926.69
2022-09-14T11:32:56.552Z,98926.38
2022-09-14T11:35:30.475Z,98929.22
2022-09-14T11:38:02.575Z,98935.13
2022-09-14T11:40:36.475Z,98917.25
2022-09-14T11:43:14.753Z,98912.56
2022-09-14T11:45:48.754Z,98914.91
2022-09-14T11:48:42.417Z,98908.25
2022-09-14T11:51:20.055Z,98907.81
2022-09-14T11:53:49.059Z,98910.97
2022-09-14T11:56:29.521Z,98903.25
2022-09-14T11:59:00.233Z,98914.41
2022-09-14T12:01:32.890Z,98921.78
2022-09-14T12:04:21.038Z,98914.34
2022-09-14T12:06:57.551Z,98905.16
2022-09-14T12:09:50.499Z,98900.59
2022-09-14T12:12:39.897Z,98903.22
2022-09-14T12:15:23.235Z,98899.66
2022-09-14T12:17:52.300Z,98900.91
2022-09-14T12:20:42.081Z,98895.97
2022-09-14T12:23:34.087Z,98902.50
2022-09-14T12:26:06.456Z,98892.72
2022-09-14T12:28:48.486Z,98892.88
2022-09-14T12:31:40.139Z,98894.59
2022-09-14T12:34:27.381Z,98890.97
2022-09-14T12:37:33.717Z,98888.78
2022-09-14T12:40:37.550Z,98884.06
2022-09-14T12:43:48.716Z,98891.38
2022-09-14T12:46:41.107Z,98880.91
2022-09-14T12:49:36.621Z,98892.63
2022-09-14T12:52:27.624Z,98885.19
2022-09-14T12:55:16.394Z,98884.09
2022-09-14T12:57:52.153Z,98892.63
2022-09-14T13:00:22.775Z,98888.47
2022-09-14T13:03:19.580Z,98890.16
2022-09-14T13:05:48.093Z,98884.53
2022-09-14T13:08:23.769Z,98898.66
2022-09-14T13:10:54.669Z,98890.09
2022-09-14T13:13:29.488Z,98882.56
2022-09-14T13:16:01.772Z,98891.53
2022-09-14T13:18:34.078Z,98887.50
2022-09-14T13:21:12.318Z,98881.75
2022-09-14T13:23:44.001Z,98882.13
2022-09-14T13:26:23.322Z,98884.84
2022-09-14T13:28:54.001Z,98878.34
2022-09-14T13:31:30.275Z,98888.91
2022-09-14T13:34:01.259Z,98881.38
2022-09-14T13:36:32.194Z,98877.53
2022-09-14T13:39:03.387Z,98877.03
2022-09-14T13:41:34.400Z,98868.38
2022-09-14T13:44:03.757Z,98872.69
2022-09-14T13:46:32.539Z,98875.53
2022-09-14T13:49:01.563Z,98868.16
2022-09-14T13:51:30.826Z,98872.00
2022-09-14T13:54:17.377Z,98862.66
2022-09-14T13:56:48.253Z,98857.31
2022-09-14T13:59:22.080Z,98867.66
2022-09-14T14:02:01.328Z,98865.63
2022-09-14T14:04:35.519Z,98856.28
2022-09-14T14:07:16.921Z,98857.56
2022-09-14T14:09:50.944Z,98849.22
2022-09-14T14:12:26.880Z,98853.91
2022-09-14T14:15:01.397Z,98856.72
2022-09-14T14:17:37.038Z,98849.22
2022-09-14T14:20:34.849Z,98853.50
2022-09-14T14:23:21.446Z,98849.66
2022-09-14T14:25:54.706Z,98841.00
2022-09-14T14:28:32.830Z,98836.84
2022-09-14T14:31:08.690Z,98834.31
2022-09-14T14:33:46.625Z,98835.47
2022-09-14T14:36:16.796Z,98829.84
2022-09-14T14:38:50.751Z,98830.19
2022-09-14T14:41:22.789Z,98839.50
2022-09-14T14:43:53.971Z,98837.16
2022-09-14T14:46:26.035Z,98826.13
2022-09-14T14:48:55.400Z,98826.28
2022-09-14T14:51:25.668Z,98825.81
2022-09-14T14:53:55.330Z,98823.19
2022-09-14T14:56:24.736Z,98821.22
2022-09-14T14:58:57.826Z,98817.41
2022-09-14T15:01:31.323Z,98818.56
2022-09-14T15:04:00.496Z,98818.53
2022-09-14T15:06:30.476Z,98821.16
2022-09-14T15:09:00.244Z,98816.16
2022-09-14T15:11:29.144Z,98818.47
2022-09-14T15:14:00.156Z,98812.13
2022-09-14T15:16:29.134Z,98820.22
2022-09-14T15:18:57.829Z,98825.84
2022-09-14T15:21:27.505Z,98825.63
2022-09-14T15:23:59.048Z,98831.59
2022-09-14T15:26:28.120Z,98827.88
2022-09-14T15:28:57.428Z,98822.88
2022-09-14T15:31:28.717Z,98831.19
2022-09-14T15:33:58.337Z,98810.88
2022-09-14T15:36:37.799Z,98824.19
2022-09-14T15:39:07.851Z,98818.72
2022-09-14T15:41:36.701Z,98813.53
2022-09-14T15:44:06.331Z,98806.22
2022-09-14T15:46:36.865Z,98808.06
2022-09-14T15:49:07.240Z,98809.03
2022-09-14T15:51:36.125Z,98804.16
2022-09-14T15:54:06.135Z,98800.06
2022-09-14T15:56:36.364Z,98795.16
2022-09-14T15:59:05.865Z,98793.91
2022-09-14T16:01:37.889Z,98804.94
2022-09-14T16:04:11.563Z,98800.84
2022-09-14T16:06:41.669Z,98797.59
2022-09-14T16:09:12.131Z,98787.88
2022-09-14T16:11:41.687Z,98790.72
2022-09-14T16:14:12.211Z,98791.97
2022-09-14T16:16:43.605Z,98790.88
2022-09-14T16:19:14.174Z,98785.78
2022-09-14T16:21:44.069Z,98782.38
2022-09-14T16:24:19.617Z,98773.75
2022-09-14T16:26:48.789Z,98779.09
2022-09-14T16:29:23.489Z,98775.28
2022-09-14T16:31:54.302Z,98788.03
2022-09-14T16:34:24.840Z,98784.59
2022-09-14T16:36:53.830Z,98785.88
2022-09-14T16:39:25.494Z,98785.22
2022-09-14T16:41:55.948Z,98781.09
2022-09-14T16:44:27.957Z,98779.41
2022-09-14T16:47:01.913Z,98768.81
2022-09-14T16:49:31.213Z,98777.78
2022-09-14T16:52:00.892Z,98774.16
2022-09-14T16:54:31.860Z,98774.97
2022-09-14T16:57:01.631Z,98772.63
2022-09-14T16:59:30.711Z,98777.78
2022-09-14T17:02:02.503Z,98778.22
2022-09-14T17:04:31.064Z,98781.38
2022-09-14T17:07:00.795Z,98782.81
2022-09-14T17:09:31.688Z,98776.94
2022-09-14T17:12:00.765Z,98780.84
2022-09-14T17:14:33.919Z,98785.72
2022-09-14T17:17:04.360Z,98793.06
2022-09-14T17:19:34.880Z,98779.94
2022-09-14T17:22:04.032Z,98776.03
2022-09-14T17:24:32.795Z,98775.34
2022-09-14T17:27:01.254Z,98772.94
2022-09-14T17:29:32.268Z,98774.91
2022-09-14T17:32:00.939Z,98781.31
2022-09-14T17:34:31.226Z,98779.78
2022-09-14T17:37:00.803Z,98783.38
2022-09-14T17:39:29.860Z,98786.31
2022-09-14T17:41:58.988Z,98776.97
2022-09-14T17:44:31.607Z,98767.63
2022-09-14T17:47:00.138Z,98781.81
2022-09-14T17:49:30.760Z,98770.53
2022-09-14T17:51:59.132Z,98772.59
2022-09-14T17:54:27.901Z,98773.59
2022-09-14T17:56:56.894Z,98773.59
2022-09-14T17:59:26.054Z,98771.91
2022-09-14T18:01:55.093Z,98775.38
2022-09-14T18:04:24.076Z,98770.09
2022-09-14T18:06:54.000Z,98770.22
2022-09-14T18:09:25.388Z,98766.88
2022-09-14T18:11:57.329Z,98773.00
2022-09-14T18:14:27.715Z,98773.00
2022-09-14T18:17:00.805Z,98776.59
2022-09-14T18:19:32.886Z,98775.06
2022-09-14T18:22:06.381Z,98774.50
2022-09-14T18:24:35.440Z,98783.41
2022-09-14T18:27:07.749Z,98777.28
2022-09-14T18:29:36.624Z,98780.06
2022-09-14T18:32:05.571Z,98776.72
2022-09-14T18:34:34.798Z,98773.34
2022-09-14T18:37:04.837Z,98771.69
2022-09-14T18:39:33.484Z,98772.78
2022-09-14T18:42:02.512Z,98769.97
2022-09-14T18:44:31.581Z,98774.16
2022-09-14T18:47:00.560Z,98761.34
2022-09-14T18:49:29.538Z,98755.50
2022-09-14T18:51:58.203Z,98759.25
2022-09-14T18:54:29.067Z,98756.72
2022-09-14T18:56:58.058Z,98753.53
2022-09-14T18:59:27.232Z,98751.25
2022-09-14T19:01:56.081Z,98748.88
2022-09-14T19:04:25.964Z,98755.41
2022-09-14T19:06:56.047Z,98751.22
2022-09-14T19:12:56.821Z,98753.66
2022-09-14T19:15:30.826Z,98755.56
2022-09-14T19:18:01.961Z,98750.28
2022-09-14T19:20:43.303Z,98747.63
2022-09-14T19:23:22.830Z,98744.88
2022-09-14T19:25:51.835Z,98744.88
2022-09-14T19:28:22.499Z,98748.22
2022-09-14T19:30:51.562Z,98743.06
2022-09-14T19:33:20.677Z,98746.69
2022-09-14T19:35:50.070Z,98748.22
2022-09-14T19:38:19.016Z,98750.88
2022-09-14T19:40:54.021Z,98758.06
2022-09-14T19:43:24.791Z,98749.47
2022-09-14T19:45:53.968Z,98748.47
2022-09-14T19:48:22.761Z,98743.06
2022-09-14T19:50:53.528Z,98746.53
2022-09-14T19:53:22.100Z,98749.19
2022-09-14T19:55:51.081Z,98736.69
2022-09-14T19:58:20.026Z,98738.34
2022-09-14T20:00:55.755Z,98735.84
2022-09-14T20:03:26.571Z,98734.03
2022-09-14T20:06:01.072Z,98726.13
2022-09-14T20:08:30.424Z,98740.16
2022-09-14T20:11:05.745Z,98738.59
2022-09-14T20:13:34.924Z,98740.56
2022-09-14T20:16:12.768Z,98737.19
2022-09-14T20:18:42.498Z,98727.47
2022-09-14T20:21:11.919Z,98729.00
2022-09-14T20:23:57.951Z,98743.06
2022-09-14T20:26:31.459Z,98749.19
2022-09-14T20:29:01.498Z,98744.88
2022-09-14T20:31:32.578Z,98751.25
2022-09-14T20:34:02.164Z,98749.47
2022-09-14T20:36:30.777Z,98743.44
2022-09-14T20:39:00.659Z,98727.72
2022-09-14T20:41:32.445Z,98722.31
2022-09-14T20:44:01.336Z,98717.75
2022-09-14T20:46:35.120Z,98721.22
2022-09-14T20:49:05.666Z,98728.03
2022-09-14T20:51:35.672Z,98721.81
2022-09-14T20:54:05.115Z,98720.28
2022-09-14T20:56:35.610Z,98720.28
2022-09-14T20:59:09.702Z,98706.34
2022-09-14T21:01:41.395Z,98707.19
2022-09-14T21:04:12.847Z,98714.25
2022-09-14T21:06:44.833Z,98710.78
2022-09-14T21:09:14.705Z,98707.69
2022-09-14T21:11:45.932Z,98708.78
2022-09-14T21:14:15.543Z,98715.31
2022-09-14T21:16:47.580Z,98724.06
2022-09-14T21:19:18.137Z,98724.06
2022-09-14T21:21:46.776Z,98717.94
2022-09-14T21:24:16.458Z,98715.16
2022-09-14T21:26:45.763Z,98709.63
2022-09-14T21:29:17.526Z,98709.38
2022-09-14T21:31:48.910Z,98715.22
2022-09-14T21:34:18.720Z,98713.28
2022-09-14T21:36:49.417Z,98717.47
2022-09-14T21:39:21.655Z,98713.88
2022-09-14T21:41:55.739Z,98710.97
2022-09-14T21:44:30.035Z,98713.13
2022-09-14T21:47:00.727Z,98708.53
2022-09-14T21:49:29.842Z,98700.47
2022-09-14T21:51:58.787Z,98703.13
2022-09-14T21:54:28.130Z,98691.69
2022-09-14T21:56:57.413Z,98693.22
2022-09-14T21:59:26.018Z,98688.06
2022-09-14T22:01:54.913Z,98686.41
2022-09-14T22:04:26.366Z,98679.59
2022-09-14T22:06:57.473Z,98675.41
2022-09-14T22:09:28.412Z,98679.72
2022-09-14T22:11:59.599Z,98667.47
2022-09-14T22:14:29.684Z,98673.75
2022-09-14T22:16:58.220Z,98669.44
2022-09-14T22:19:30.658Z,98664.16
2022-09-14T22:22:00.324Z,98668.97
2022-09-14T22:24:37.024Z,98681.69
2022-09-14T22:27:08.259Z,98675.97
2022-09-14T22:29:37.449Z,98679.47
2022-09-14T22:32:11.484Z,98671.81
2022-09-14T22:34:43.904Z,98671.31
2022-09-14T22:37:15.165Z,98667.81
2022-09-14T22:39:43.537Z,98662.28
2022-09-14T22:42:12.695Z,98656.84
2022-09-14T22:44:40.992Z,98654.91
2022-09-14T22:47:09.749Z,98652.94
2022-09-14T22:49:38.599Z,98650.59
2022-09-14T22:52:08.532Z,98648.50
2022-09-14T22:54:36.930Z,98647.44
2022-09-14T22:57:05.496Z,98636.88
2022-09-14T22:59:33.780Z,98645.78
2022-09-14T23:02:02.662Z,98636.28
2022-09-14T23:04:31.252Z,98636.28
2022-09-14T23:07:01.253Z,98632.91
2022-09-14T23:09:31.163Z,98634.03
2022-09-14T23:11:59.485Z,98622.75
2022-09-14T23:14:28.356Z,98619.28
2022-09-14T23:16:57.040Z,98621.91
2022-09-14T23:19:25.646Z,98612.31
2022-09-14T23:21:53.890Z,98614.13
2022-09-14T23:24:22.544Z,98613.16
2022-09-14T23:26:52.755Z,98614.84
2022-09-14T23:29:21.379Z,98615.94
2022-09-14T23:31:49.874Z,98609.69
2022-09-14T23:34:18.144Z,98610.53
2022-09-14T23:36:46.495Z,98611.22
2022-09-14T23:39:14.840Z,98606.78
2022-09-14T23:41:43.390Z,98611.22
2022-09-14T23:44:14.764Z,98605.38
2022-09-14T23:46:43.608Z,98593.41
2022-09-14T23:49:15.683Z,98586.59
2022-09-14T23:51:47.547Z,98582.28
2022-09-14T23:54:16.361Z,98580.56
2022-09-14T23:56:45.131Z,98578.09
2022-09-14T23:59:16.431Z,98586.41
